Latest Weather Observations for Cessnock Airport

IDN60801

Issued at 10:35 pm EST Friday 18 April 2014 (issued every 30 minutes, with the page automatically refreshed every 10 minutes)

About weather observations | Map of weather stations | Latest weather observations for NSW | Other Formats
Station Details ID: 061260 Name: CESSNOCK AIRPORT AWS Lat: -32.79 Lon: 151.34 Height: 61.0 m
Data from the previous 72 hours. | See also: Recent months at Cessnock Airport
Date/Time
EST
Temp
°C
App
Temp
°C
Dew
Point
Rel
Hum
%
Delta-T
°C
Wind Press
QNH
hPa
Press
MSL
hPa
Rain
since 9 am
mm
Dir
 
Spd
km/h
Gust
km/h
Spd
kts
Gust
kts
18/10:30pm 20.6 18.0 7.9 44 6.6 W 11 17 6 9 1014.7 - 0.0
18/10:00pm 19.1 16.6 8.4 50 5.6 W 11 17 6 9 1014.7 - 0.0
18/09:30pm 18.1 16.0 8.1 52 5.1 WSW 9 13 5 7 1014.7 - 0.0
18/09:00pm 18.2 15.5 7.3 49 5.5 W 11 17 6 9 1014.6 1014.5 0.0
18/08:30pm 19.4 16.3 7.2 45 6.2 W 13 19 7 10 1014.3 - 0.0
18/08:00pm 19.6 15.8 7.7 46 6.1 WSW 17 20 9 11 1014.0 - 0.0
18/07:30pm 17.9 15.1 8.7 55 4.8 WSW 13 17 7 9 1013.7 - 0.0
18/07:00pm 16.8 14.6 9.5 62 3.8 WSW 11 15 6 8 1013.3 - 0.0
18/06:30pm 17.0 15.3 9.9 63 3.7 WSW 9 11 5 6 1012.9 - 0.0
18/06:00pm 20.2 18.3 9.2 49 5.8 WNW 9 13 5 7 1012.5 1012.3 0.0
18/05:30pm 21.3 19.4 8.9 45 6.6 NNW 9 13 5 7 1012.3 - 0.0
18/05:00pm 22.9 20.5 8.6 40 7.6 NNW 11 20 6 11 1012.3 - 0.0
18/04:30pm 23.7 21.3 8.5 38 8.1 NNW 11 19 6 10 1012.0 - 0.0
18/04:00pm 24.1 21.2 8.1 36 8.5 NW 13 20 7 11 1012.1 - 0.0
18/03:30pm 24.3 20.9 9.1 38 8.2 NW 17 24 9 13 1012.0 - 0.0
18/03:00pm 24.3 21.7 9.5 39 8.1 NW 13 20 7 11 1012.1 1011.9 0.0
18/02:30pm 24.0 21.1 9.6 40 7.9 NNW 15 22 8 12 1012.2 - 0.0
18/02:00pm 23.7 21.3 10.0 42 7.5 NNW 13 22 7 12 1012.5 - 0.0
18/01:30pm 23.5 21.1 9.9 42 7.4 NNW 13 22 7 12 1012.8 - 0.0
18/01:00pm 22.9 20.5 10.0 44 7.1 NNW 13 22 7 12 1013.1 - 0.0
18/12:30pm 23.1 21.2 11.8 49 6.4 NW 13 24 7 13 1013.7 - 0.0
18/12:00pm 22.1 18.9 11.2 50 6.1 NNW 19 24 10 13 1014.4 1014.3 0.0
18/11:30am 21.8 18.8 12.1 54 5.5 WNW 19 26 10 14 1014.9 - 0.0
18/11:00am 20.8 18.0 11.2 54 5.3 NNW 17 26 9 14 1015.4 - 0.0
18/10:30am 20.0 17.5 12.3 61 4.3 NNW 17 24 9 13 1015.8 - 0.0
18/10:00am 19.0 16.9 12.3 65 3.7 N 15 22 8 12 1016.1 - 0.0
18/09:30am 18.2 16.2 12.6 70 3.1 NNW 15 20 8 11 1016.6 - 0.0
18/09:00am 17.1 16.0 14.2 83 1.7 N 13 17 7 9 1016.9 1016.8 0.0
18/08:30am 16.0 14.8 14.0 88 1.1 NNW 13 17 7 9 1017.1 - 0.0
18/08:00am 14.7 14.7 14.2 97 0.3 N 7 11 4 6 1017.1 - 0.0
18/07:30am 13.1 12.3 12.9 99 0.1 NNW 9 13 5 7 1017.2 - 0.0
18/07:00am 10.1 10.1 9.9 99 0.1 CALM 0 0 0 0 1017.0 - 0.0
18/06:30am 8.8 7.7 8.5 98 0.1 N 4 7 2 4 1016.9 - 0.0
18/06:00am 10.2 8.9 10.0 99 0.1 NNE 7 9 4 5 1016.8 1016.7 0.0
18/05:30am 8.4 7.6 8.1 98 0.1 NNW 2 7 1 4 1016.8 - 0.0
18/05:00am 9.1 8.8 8.8 98 0.1 CALM 0 6 0 3 1016.9 - 0.0
18/04:30am 9.3 9.1 9.0 98 0.1 CALM 0 0 0 0 1017.0 - 0.0
18/04:00am 8.9 8.6 8.6 98 0.1 CALM 0 6 0 3 1016.9 - 0.0
18/03:30am 9.3 9.1 9.0 98 0.1 CALM 0 0 0 0 1016.7 - 0.0
18/03:00am 9.9 9.8 9.6 98 0.1 CALM 0 0 0 0 1016.8 1016.7 0.0
18/02:30am 9.7 9.5 9.2 97 0.2 CALM 0 0 0 0 1017.0 - 0.0
18/02:00am 10.1 10.0 9.6 97 0.3 CALM 0 0 0 0 1017.2 - 0.0
18/01:30am 10.5 10.6 10.2 98 0.2 CALM 0 0 0 0 1017.4 - 0.0
18/01:00am 10.3 10.3 9.8 97 0.3 CALM 0 0 0 0 1017.7 - 0.0
18/12:30am 11.1 11.3 10.6 97 0.3 CALM 0 0 0 0 1018.0 - 0.0
18/12:00am 11.7 12.1 11.2 97 0.3 NNE 0 0 0 0 1018.2 1018.1 0.0
 
Date/Time
EST
Temp
°C
App
Temp
°C
Dew
Point
Rel
Hum
%
Delta-T
°C
Wind Press
QNH
hPa
Press
MSL
hPa
Rain
since 9 am
mm
Dir
 
Spd
km/h
Gust
km/h
Spd
kts
Gust
kts
17/11:30pm 11.5 11.8 11.0 97 0.3 CALM 0 0 0 0 1018.3 - 0.0
17/11:00pm 12.2 12.7 11.7 97 0.3 CALM 0 0 0 0 1018.6 - 0.0
17/10:30pm 12.4 12.2 11.8 96 0.3 E 4 7 2 4 1018.7 - 0.0
17/10:00pm 12.6 13.2 12.0 96 0.3 CALM 0 0 0 0 1018.8 - 0.0
17/09:30pm 12.5 12.6 11.6 94 0.5 WSW 2 7 1 4 1018.9 - 0.0
17/09:00pm 12.8 12.7 12.0 95 0.4 WSW 4 7 2 4 1018.9 1018.8 0.0
17/08:30pm 13.2 13.9 12.3 94 0.5 CALM 0 0 0 0 1018.9 - 0.0
17/08:00pm 13.4 13.0 12.3 93 0.6 W 6 7 3 4 1018.7 - 0.0
17/07:30pm 13.9 13.1 11.8 87 1.1 W 7 7 4 4 1018.5 - 0.0
17/07:00pm 15.3 14.6 11.9 80 1.8 SW 7 9 4 5 1018.3 - 0.0
17/06:30pm 16.7 16.3 12.3 75 2.4 SE 6 7 3 4 1018.0 - 0.0
17/06:00pm 17.9 17.0 12.6 71 3.0 SE 9 13 5 7 1017.8 1017.7 0.0
17/05:30pm 18.7 17.8 12.7 68 3.4 SE 9 15 5 8 1017.4 - 0.0
17/05:00pm 19.8 17.8 12.6 63 4.1 SE 15 19 8 10 1017.2 - 0.0
17/04:30pm 20.8 18.4 12.5 59 4.7 SE 17 22 9 12 1016.9 - 0.0
17/04:00pm 21.7 18.6 12.3 55 5.3 SE 20 28 11 15 1016.7 - 0.0
17/03:30pm 22.9 18.6 7.0 36 8.2 SE 19 24 10 13 1016.6 - 0.0
17/03:00pm 23.1 19.6 5.5 32 8.9 S 13 20 7 11 1016.7 1016.6 0.0
17/02:30pm 23.0 19.6 7.5 37 8.1 SSW 15 26 8 14 1016.7 - 0.0
17/02:00pm 22.8 19.1 7.8 38 7.9 S 17 24 9 13 1016.9 - 0.0
17/01:30pm 22.5 19.2 8.2 40 7.5 S 15 20 8 11 1017.1 - 0.0
17/01:00pm 22.9 19.3 8.2 39 7.8 SSW 17 24 9 13 1017.3 - 0.0
17/12:30pm 22.2 19.1 8.7 42 7.2 SW 15 24 8 13 1017.7 - 0.0
17/12:00pm 22.1 18.8 8.2 41 7.3 S 15 24 8 13 1018.2 1018.1 0.0
17/11:30am 21.4 17.1 6.9 39 7.4 SSW 19 28 10 15 1018.8 - 0.0
17/11:00am 21.6 19.0 9.5 46 6.5 WSW 13 22 7 12 1019.0 - 0.0
17/10:30am 20.6 17.6 9.2 48 6.1 SW 15 24 8 13 1019.1 - 0.0
17/10:00am 20.3 18.3 10.1 52 5.5 WSW 11 26 6 14 1019.2 - 0.0
17/09:30am 19.2 18.1 10.5 57 4.7 NW 7 11 4 6 1019.4 - 0.0
17/09:00am 18.0 17.8 12.9 72 2.9 NE 6 9 3 5 1019.4 1019.3 0.0
17/08:30am 16.7 16.6 14.0 84 1.5 NE 7 9 4 5 1019.5 - 0.0
17/08:00am 15.0 14.6 14.0 94 0.6 N 9 13 5 7 1019.1 - 0.0
17/07:30am 13.1 14.0 12.9 99 0.1 CALM 0 0 0 0 1018.9 - 0.0
17/07:00am 11.0 11.3 10.8 99 0.1 CALM 0 0 0 0 1018.8 - 0.0
17/06:30am 9.3 9.1 9.0 98 0.1 CALM 0 0 0 0 1018.4 - 0.0
17/06:00am 9.6 9.1 9.3 98 0.1 N 2 7 1 4 1018.2 1018.1 0.0
17/05:30am 9.9 8.7 9.6 98 0.2 NNE 6 9 3 5 1018.0 - 0.0
17/05:00am 10.4 9.3 10.1 98 0.2 ENE 6 7 3 4 1017.8 - 0.0
17/04:30am 9.9 9.8 9.6 98 0.2 CALM 0 0 0 0 1017.6 - 0.0
17/04:00am 9.7 9.6 9.4 98 0.1 CALM 0 0 0 0 1017.6 - 0.0
17/03:30am 9.9 9.8 9.6 98 0.2 CALM 0 7 0 4 1017.4 - 0.0
17/03:00am 9.6 9.5 9.3 98 0.1 CALM 0 0 0 0 1017.3 1017.2 0.0
17/02:30am 10.3 10.4 10.0 98 0.2 CALM 0 0 0 0 1017.3 - 0.0
17/02:00am 11.1 11.4 10.8 98 0.2 CALM 0 0 0 0 1017.4 - 0.0
17/01:30am 11.1 11.4 10.8 98 0.2 CALM 0 0 0 0 1017.6 - 0.0
17/01:00am 10.8 10.9 10.3 97 0.3 CALM 0 0 0 0 1017.9 - 0.0
17/12:30am 11.4 11.8 11.1 98 0.2 CALM 0 0 0 0 1018.2 - 0.0
17/12:00am 11.3 11.6 10.8 97 0.3 CALM 0 0 0 0 1018.4 1018.3 0.0
 
Date/Time
EST
Temp
°C
App
Temp
°C
Dew
Point
Rel
Hum
%
Delta-T
°C
Wind Press
QNH
hPa
Press
MSL
hPa
Rain
since 9 am
mm
Dir
 
Spd
km/h
Gust
km/h
Spd
kts
Gust
kts
16/11:30pm 11.2 11.4 10.7 97 0.3 CALM 0 0 0 0 1018.3 - 0.0
16/11:00pm 11.7 12.1 11.1 96 0.3 CALM 0 0 0 0 1018.3 - 0.0
16/10:30pm 11.9 12.3 11.3 96 0.3 CALM 0 0 0 0 1018.4 - 0.0
16/10:00pm 12.5 13.1 11.9 96 0.3 CALM 0 0 0 0 1018.5 - 0.0
16/09:30pm 12.8 13.5 12.2 96 0.3 CALM 0 0 0 0 1018.8 - 0.0
16/09:00pm 13.2 13.6 12.6 96 0.3 W 2 6 1 3 1018.6 1018.5 0.0
16/08:30pm 12.6 12.7 11.5 93 0.6 SW 2 7 1 4 1018.4 - 0.0
16/08:00pm 13.7 14.5 12.6 93 0.6 CALM 0 0 0 0 1018.3 - 0.0
16/07:30pm 14.5 13.8 13.2 92 0.7 WSW 9 11 5 6 1018.1 - 0.0
16/07:00pm 14.4 13.5 12.6 89 1.0 WSW 9 9 5 5 1017.8 - 0.0
16/06:30pm 15.3 14.3 12.2 82 1.7 WSW 9 11 5 6 1017.7 - 0.0
16/06:00pm 17.0 17.2 11.7 71 2.9 SE 2 7 1 4 1017.5 1017.4 0.0
16/05:30pm 18.1 17.4 11.9 67 3.4 S 7 9 4 5 1017.1 - 0.0
16/05:00pm 19.4 17.5 11.7 61 4.3 S 13 17 7 9 1016.9 - 0.0
16/04:30pm 20.2 19.2 12.4 61 4.4 SSE 9 15 5 8 1016.7 - 0.0
16/04:00pm 20.2 19.1 11.9 59 4.6 SSE 9 15 5 8 1016.7 - 0.0
16/03:30pm 20.7 17.4 10.8 53 5.4 SSE 19 30 10 16 1016.6 - 0.0
16/03:00pm 21.4 19.5 11.7 54 5.4 SW 13 17 7 9 1016.4 1016.3 0.0
16/02:30pm 21.7 19.4 11.7 53 5.6 S 15 20 8 11 1016.4 - 0.0
16/02:00pm 21.2 18.9 11.8 55 5.3 S 15 24 8 13 1016.7 - 0.0
16/01:30pm 21.2 20.2 12.3 57 5.0 S 9 13 5 7 1016.7 - 0.0
16/01:00pm 21.3 18.4 12.2 56 5.1 SSE 19 24 10 13 1017.1 - 0.0
16/12:30pm 20.4 17.8 11.9 58 4.7 SSW 17 24 9 13 1017.5 - 0.0
16/12:00pm 20.9 17.8 12.1 57 4.9 SSW 20 28 11 15 1017.9 1017.8 0.0
16/11:30am 20.7 18.6 12.4 59 4.7 SSW 15 24 8 13 1018.2 - 0.0
16/11:00am 20.6 18.5 12.3 59 4.7 SW 15 20 8 11 1018.6 - 0.0
16/10:30am 20.3 18.6 12.5 61 4.4 SSW 13 19 7 10 1018.7 - 0.0
16/10:00am 20.0 18.5 13.2 65 3.9 SW 13 19 7 10 1018.8 - 0.0
16/09:30am 19.2 17.0 13.2 68 3.4 SSW 17 26 9 14 1019.0 - 0.0
16/09:00am 18.6 16.1 12.4 67 3.5 SSW 17 24 9 13 1019.0 1018.9 1.0
16/08:30am 17.7 16.3 12.2 70 3.0 SSW 11 19 6 10 1018.9 - 1.0
16/08:00am 17.2 15.8 12.1 72 2.8 SSW 11 15 6 8 1018.8 - 1.0
16/07:30am 16.7 16.2 12.7 77 2.2 SW 7 13 4 7 1018.7 - 1.0
16/07:00am 15.9 15.0 12.5 80 1.9 SSW 9 15 5 8 1018.4 - 1.0
16/06:30am 15.4 14.3 12.0 80 1.9 SSW 9 13 5 7 1018.1 - 1.0
16/06:00am 15.7 14.8 12.5 81 1.8 SSW 9 15 5 8 1018.1 1018.0 1.0
16/05:30am 15.8 14.6 12.7 82 1.7 SSW 11 17 6 9 1017.9 - 1.0
16/05:00am 15.9 14.7 12.8 82 1.7 SW 11 17 6 9 1017.7 - 1.0
16/04:30am 15.7 14.5 12.8 83 1.6 SSW 11 15 6 8 1017.4 - 1.0
16/04:00am 15.8 14.8 13.3 85 1.4 SSW 11 15 6 8 1017.4 - 1.0
16/03:30am 15.8 15.6 13.5 86 1.3 SW 7 9 4 5 1017.3 - 1.0
16/03:00am 16.0 14.7 13.8 87 1.2 SW 13 20 7 11 1017.3 1017.2 1.0
16/02:30am 15.7 15.7 14.2 91 0.9 WSW 7 11 4 6 1017.4 - 1.0
16/02:00am 15.7 15.9 14.7 94 0.6 SW 7 11 4 6 1017.7 - 1.0
16/01:30am 15.5 15.7 14.7 95 0.5 SW 7 11 4 6 1018.1 - 1.0
16/01:00am 15.5 15.7 14.7 95 0.5 SW 7 11 4 6 1018.5 - 0.8
16/12:30am 15.5 15.7 14.7 95 0.5 SSW 7 11 4 6 1018.7 - 0.6
16/12:00am 15.6 15.3 14.5 93 0.6 S 9 13 5 7 1018.8 1018.7 0.6
 
Date/Time
EST
Temp
°C
App
Temp
°C
Dew
Point
Rel
Hum
%
Delta-T
°C
Wind Press
QNH
hPa
Press
MSL
hPa
Rain
since 9 am
mm
Dir
 
Spd
km/h
Gust
km/h
Spd
kts
Gust
kts
15/11:30pm 15.9 15.2 14.4 91 0.9 SSW 11 15 6 8 1018.8 - 0.4
15/11:00pm 16.2 15.2 14.6 90 0.9 SSW 13 17 7 9 1019.0 - 0.4

Other Formats:

Comma delimited format used in spreadsheet applications
http://www.bom.gov.au/fwo/IDN60801/IDN60801.95771.axf

JavaScript Object Notation format (JSON) in row-major order
http://www.bom.gov.au/fwo/IDN60801/IDN60801.95771.json